Latest Weather Observations for Mount Hotham Airport

IDV60801

Issued at 12:32 pm EST Tuesday 26 July 2016 (issued every 30 minutes, with the page automatically refreshed every 10 minutes)

About weather observations | Map of weather stations | Latest weather observations for VIC | Other Formats
Station Details ID: 083055 Name: MOUNT HOTHAM AIRPORT Lat: -37.05 Lon: 147.33 Height: 1295.4 m
Data from the previous 72 hours. | See also: Recent months at Mount Hotham Airport
Date/Time
EST
Temp
°C
App
Temp
°C
Dew
Point
°C
Rel
Hum
%
Delta-T
°C
Wind Press
QNH
hPa
Press
MSL
hPa
Rain since
9am
mm
Dir  Spd
km/h
Gust
km/h
Spd
kts
Gust
kts
26/12:30pm -0.1 -5.0 -3.0 81 1.1 NNW 13 22 7 12 1010.3 - 0.6
26/12:28pm -0.2 -5.1 -3.2 80 1.1 NNW 13 22 7 12 1010.3 - 0.6
26/12:27pm -0.2 -5.1 -3.2 80 1.1 NNW 13 22 7 12 1010.3 - 0.6
26/12:12pm -0.6 -6.8 -3.1 83 0.9 NNW 20 35 11 19 1010.6 - 0.6
26/12:11pm -0.6 -6.8 -3.1 83 0.9 NNW 20 35 11 19 1010.6 - 0.6
26/12:00pm -0.6 -7.2 -3.6 80 1.0 NNW 22 43 12 23 1010.6 1014.6 0.6
26/11:59am -0.6 -6.9 -3.6 80 1.0 NNW 20 43 11 23 1010.6 - 0.6
26/11:41am -0.8 -7.8 -3.3 83 0.9 NW 24 43 13 23 1010.6 - 0.6
26/11:40am -0.8 -7.8 -3.3 83 0.9 NW 24 43 13 23 1010.6 - 0.6
26/11:30am -0.7 -8.1 -3.7 80 1.0 NNW 26 37 14 20 1010.8 - 0.6
26/11:00am -0.9 -7.5 -3.3 84 0.8 NNW 22 30 12 16 1010.9 - 0.6
26/10:30am -0.7 -6.0 -3.5 81 1.0 NNW 15 32 8 17 1011.2 - 0.6
26/10:28am -0.6 -5.8 -3.1 83 0.9 NNW 15 32 8 17 1011.2 - 0.6
26/10:27am -0.6 -5.8 -3.1 83 0.9 NNW 15 32 8 17 1011.2 - 0.6
26/10:14am -1.0 -6.2 -3.0 86 0.7 N 15 20 8 11 1011.2 - 0.6
26/10:13am -1.0 -6.2 -3.0 86 0.7 N 15 20 8 11 1011.2 - 0.6
26/10:00am -0.7 -6.4 -3.4 82 0.9 NW 17 30 9 16 1011.1 - 0.6
26/09:30am -1.1 -7.1 -3.4 84 0.8 NW 19 33 10 18 1010.8 - 0.6
26/09:11am -0.8 -6.8 -3.2 84 0.8 NW 19 32 10 17 1010.5 - 0.4
26/09:10am -0.8 -6.8 -3.2 84 0.8 NW 19 32 10 17 1010.5 - 0.4
26/09:00am -0.8 -4.9 -2.8 86 0.7 NNW 9 20 5 11 1010.4 1014.3 5.0
26/08:30am -1.9 -6.1 -3.6 88 0.5 N 9 20 5 11 1010.1 - 4.4
26/08:26am -1.8 -6.7 -3.7 87 0.6 NNW 13 30 7 16 1010.1 - -
26/08:25am -1.8 -6.7 -3.7 87 0.6 NNW 13 30 7 16 1010.1 - 4.4
26/08:00am -2.0 -9.4 -3.9 87 0.6 WNW 26 44 14 24 1009.4 - 4.4
26/07:30am -2.1 -9.1 -3.7 89 0.5 WNW 24 44 13 24 1009.2 - 4.4
26/07:11am -2.2 -10.0 -3.9 88 0.5 WNW 28 52 15 28 1008.8 - -
26/07:10am -2.2 -10.0 -3.9 88 0.5 WNW 28 52 15 28 1008.8 - 4.4
26/07:00am -2.2 -8.5 -4.1 87 0.6 WNW 20 35 11 19 1008.7 - 4.4
26/06:30am -2.2 -10.4 -4.1 87 0.6 WNW 30 48 16 26 1008.1 - 4.4
26/06:01am -2.2 -11.8 -4.2 86 0.6 WNW 37 56 20 30 1007.5 - -
26/06:00am -2.2 -11.8 -4.2 86 0.6 WNW 37 56 20 30 1007.6 1011.3 -
26/05:31am -2.2 -11.8 -4.2 86 0.6 WNW 37 56 20 30 1007.3 - 4.4
26/05:30am -2.2 -12.1 -4.2 86 0.6 WNW 39 56 21 30 1007.2 - 4.4
26/05:04am -2.2 -12.5 -4.2 86 0.6 WNW 41 63 22 34 1006.8 - -
26/05:03am -2.2 -12.5 -4.2 86 0.6 WNW 41 63 22 34 1006.8 - 4.4
26/05:00am -2.1 -12.4 -4.1 86 0.6 WNW 41 56 22 30 1006.7 - 4.4
26/04:30am -2.0 -11.3 -5.0 80 0.9 WNW 35 56 19 30 1006.7 - 4.4
26/04:07am -1.7 -10.3 -4.4 82 0.9 WNW 32 50 17 27 1006.7 - -
26/04:06am -1.7 -10.3 -4.4 82 0.9 WNW 32 50 17 27 1006.7 - 4.4
26/04:00am -1.8 -10.4 -4.5 82 0.8 W 32 48 17 26 1006.6 - 4.4
26/03:46am -1.6 -10.4 -4.3 82 0.9 WNW 33 54 18 29 1006.3 - -
26/03:45am -1.6 -10.4 -4.3 82 0.9 WNW 33 54 18 29 1006.3 - 4.4
26/03:31am -1.8 -10.7 -4.8 80 0.9 WNW 33 48 18 26 1006.1 - -
26/03:30am -1.8 -10.7 -4.8 80 0.9 WNW 33 48 18 26 1006.1 - 4.4
26/03:15am -1.6 -9.4 -4.1 83 0.8 W 28 48 15 26 1006.1 - -
26/03:14am -1.6 -9.4 -4.1 83 0.8 W 28 48 15 26 1006.1 - 4.4
26/03:12am -1.4 -9.2 -4.1 82 0.9 W 28 39 15 21 1006.0 - -
26/03:11am -1.4 -9.2 -4.1 82 0.9 W 28 39 15 21 1006.0 - 4.4
26/03:00am -1.3 -9.0 -3.2 87 0.6 WNW 28 46 15 25 1006.1 1009.9 4.0
26/02:58am -1.2 -8.9 -3.1 87 0.6 WNW 28 46 15 25 1006.2 - 4.4
26/02:57am -1.2 -8.5 -3.1 87 0.6 WNW 26 46 14 25 1006.1 - 4.4
26/02:41am -1.0 -9.4 -2.4 90 0.5 WNW 32 52 17 28 1005.8 - -
26/02:40am -1.0 -9.4 -2.4 90 0.5 WNW 32 52 17 28 1005.8 - 4.4
26/02:30am -1.1 -9.5 -2.4 91 0.4 WNW 32 48 17 26 1005.6 - 4.4
26/02:07am -1.0 -8.6 -1.8 94 0.2 WNW 28 46 15 25 1005.6 - -
26/02:06am -1.0 -8.6 -1.8 94 0.2 WNW 28 46 15 25 1005.6 - 4.4
26/02:00am -1.1 -8.3 -1.7 96 0.2 WNW 26 39 14 21 1005.4 - 4.4
26/01:32am -0.9 -10.2 -2.2 91 0.4 WNW 37 56 20 30 1005.2 - -
26/01:31am -0.9 -10.2 -2.2 91 0.4 WNW 37 56 20 30 1005.2 - 4.4
26/01:30am -0.9 -10.6 -2.2 91 0.4 WNW 39 56 21 30 1005.2 - 4.4
26/01:00am -0.8 -10.9 -2.5 88 0.6 WNW 41 61 22 33 1005.2 - 4.2
26/12:57am -0.8 -10.5 -2.4 89 0.6 WNW 39 61 21 33 1005.0 - -
26/12:56am -0.8 -10.5 -2.4 89 0.6 WNW 39 61 21 33 1005.0 - 4.2
26/12:47am -0.7 -10.7 -1.5 94 0.3 WNW 41 59 22 32 1004.6 - -
26/12:46am -0.7 -10.7 -1.5 94 0.3 WNW 41 59 22 32 1004.6 - 4.2
26/12:45am -0.7 -10.7 -1.4 95 0.2 WNW 41 59 22 32 1004.7 - -
26/12:44am -0.7 -10.7 -1.4 95 0.2 WNW 41 59 22 32 1004.7 - 4.2
26/12:41am -0.7 -11.0 -1.3 96 0.2 WNW 43 59 23 32 1004.6 - -
26/12:40am -0.7 -11.0 -1.3 96 0.2 WNW 43 59 23 32 1004.6 - 4.2
26/12:30am -0.4 -10.8 -0.5 99 0.0 WNW 44 72 24 39 1004.9 - 4.2
26/12:22am -0.3 -9.4 -0.4 99 0.0 WNW 37 72 20 39 1004.7 - -
26/12:21am -0.3 -9.4 -0.4 99 0.0 WNW 37 72 20 39 1004.7 - 4.2
26/12:02am 0.0 -8.3 -0.1 99 0.0 WNW 33 54 18 29 1005.3 - 4.0
26/12:00am 0.0 -8.3 -0.1 99 0.0 WNW 33 50 18 27 1005.2 1009.0 -
 
Date/Time
EST
Temp
°C
App
Temp
°C
Dew
Point
°C
Rel
Hum
%
Delta-T
°C
Wind Press
QNH
hPa
Press
MSL
hPa
Rain since
9am
mm
Dir  Spd
km/h
Gust
km/h
Spd
kts
Gust
kts
25/11:32pm 0.3 -8.3 0.2 99 0.0 WNW 35 54 19 29 1004.7 - -
25/11:31pm 0.3 -8.3 0.2 99 0.0 WNW 35 54 19 29 1004.7 - 3.8
25/11:30pm 0.3 -8.7 0.2 99 0.0 WNW 37 54 20 29 1004.9 - 3.8
25/11:00pm 0.6 -9.1 0.5 99 0.0 NW 41 63 22 34 1004.1 - 3.2
25/10:31pm 0.7 -10.3 0.6 99 0.0 NW 48 69 26 37 1003.7 - -
25/10:30pm 0.7 -10.3 0.6 99 0.0 NW 48 69 26 37 1003.7 - 2.4
25/10:00pm 0.6 -9.7 0.5 99 0.0 NW 44 67 24 36 1003.6 - 1.6
25/09:30pm 0.5 -10.9 0.4 99 0.0 NW 50 72 27 39 1004.1 - 1.0
25/09:00pm 0.6 -10.0 0.5 99 0.0 NW 46 65 25 35 1004.2 1008.0 0.8
25/08:30pm 0.4 -11.0 0.3 99 0.0 NW 50 74 27 40 1004.7 - 0.4
25/08:00pm 0.2 -11.3 -0.1 98 0.1 NW 50 74 27 40 1004.9 - 0.2
25/07:53pm 0.7 -11.9 0.3 97 0.2 NW 56 74 30 40 1005.3 - 0.2
25/07:52pm 0.7 -12.1 0.3 97 0.2 NW 57 74 31 40 1005.2 - 0.2
25/07:30pm 0.8 -8.7 -0.8 89 0.6 NW 39 59 21 32 1005.3 - 0.0
25/07:17pm 1.2 -10.1 -1.5 82 1.0 NW 48 70 26 38 1005.0 - -
25/07:16pm 1.2 -10.1 -1.5 82 1.0 NW 48 70 26 38 1005.0 - 0.0
25/07:00pm 0.9 -11.2 -1.8 82 1.1 NW 52 78 28 42 1005.0 - 0.0
25/06:46pm 1.0 -10.7 -1.6 83 1.0 NW 50 72 27 39 1005.1 - -
25/06:45pm 1.0 -10.7 -1.6 83 1.0 NW 50 72 27 39 1005.1 - 0.0
25/06:30pm 0.8 -10.0 -0.6 90 0.5 NW 46 67 25 36 1005.3 - 0.0
25/06:06pm 0.7 -10.2 -1.5 85 0.9 NW 46 69 25 37 1005.4 - -
25/06:05pm 0.7 -10.2 -1.5 85 0.9 NW 46 69 25 37 1005.4 - 0.0
25/06:00pm 0.6 -10.8 -1.8 84 0.9 NW 48 70 26 38 1005.2 1008.9 0.0
25/05:32pm 0.8 -11.7 -2.2 80 1.2 NW 54 78 29 42 1005.0 - -
25/05:31pm 0.8 -11.7 -2.2 80 1.2 NW 54 78 29 42 1005.0 - 0.0
25/05:30pm 0.8 -11.4 -2.6 78 1.3 NW 52 78 28 42 1004.9 - 0.0
25/05:00pm 0.9 -11.1 -1.0 87 0.7 NW 52 74 28 40 1004.9 - 0.0
25/04:51pm 1.1 -11.6 -0.8 87 0.7 NW 56 74 30 40 1004.7 - -
25/04:50pm 1.1 -11.6 -0.8 87 0.7 NW 56 74 30 40 1004.7 - 0.0
25/04:32pm 1.6 -10.8 -0.8 84 0.9 NW 54 72 29 39 1004.5 - 0.0
25/04:31pm - - - - - NW 43 65 23 35 - - -
25/04:30pm 1.5 -10.5 -0.7 85 0.9 NW 52 65 28 35 1004.5 - 0.0
25/04:00pm 2.2 -8.6 -0.7 81 1.1 NW 46 74 25 40 1004.3 - 0.0
25/03:47pm 2.3 -9.3 -0.6 81 1.2 NW 50 69 27 37 1004.3 - 0.0
25/03:41pm 2.2 -10.7 -0.9 80 1.2 NW 57 69 31 37 1004.4 - 0.0
25/03:30pm 2.6 -6.5 -0.7 79 1.3 NW 37 61 20 33 1005.0 - 0.0
25/03:00pm 2.8 -5.5 -0.1 81 1.2 NW 33 52 18 28 1005.8 1009.5 0.0
25/02:53pm 2.7 -4.7 -0.4 80 1.2 NW 28 52 15 28 1005.6 - 0.0
25/02:30pm 3.4 -2.4 -0.2 77 1.5 NNW 20 30 11 16 1006.4 - 0.0
25/02:00pm 3.2 -2.9 0.3 81 1.2 NW 22 52 12 28 1006.6 - 0.0
25/01:30pm 2.4 -4.6 -0.2 83 1.0 WNW 26 43 14 23 1006.8 - 0.0
25/01:00pm 2.9 -2.3 -0.2 80 1.3 NW 17 33 9 18 1007.1 - 0.0
25/12:30pm 2.1 -3.6 -0.5 83 1.0 NW 19 28 10 15 1007.7 - 0.0
25/12:00pm 1.9 -5.2 -1.0 81 1.1 NW 26 39 14 21 1007.8 1011.6 0.0
25/11:30am 1.4 -6.9 -1.5 81 1.1 NW 32 43 17 23 1007.9 - 0.0
25/11:00am 1.3 -7.1 -1.4 82 1.0 NW 33 46 18 25 1008.0 - 0.0
25/10:30am 1.3 -5.5 -1.8 80 1.2 NW 24 39 13 21 1008.0 - 0.0
25/10:00am 1.2 -5.3 -2.2 78 1.3 NW 22 30 12 16 1007.9 - 0.0
25/09:30am 1.4 -3.7 -1.8 79 1.2 NNW 15 24 8 13 1007.8 - 0.0
25/09:00am 0.6 -4.5 -2.1 82 1.1 NNW 15 24 8 13 1007.5 1011.3 0.6
25/08:30am -0.3 -6.2 -2.3 86 0.7 NW 19 32 10 17 1007.3 - 0.6
25/08:00am -0.8 -5.6 -2.7 87 0.7 WNW 13 22 7 12 1007.0 - 0.6
25/07:30am -1.2 -7.2 -3.4 85 0.7 WNW 19 28 10 15 1006.8 - 0.6
25/07:00am -1.1 -7.4 -3.6 83 0.8 WNW 20 33 11 18 1006.0 - 0.6
25/06:30am -1.0 -5.8 -2.9 87 0.6 NW 13 26 7 14 1005.6 - 0.6
25/06:00am -1.1 -7.1 -2.8 88 0.6 WNW 19 26 10 14 1005.2 1008.9 0.6
25/05:30am -1.1 -6.6 -2.2 92 0.4 NW 17 24 9 13 1005.1 - 0.6
25/05:00am -1.5 -5.2 -2.6 92 0.3 NNW 7 15 4 8 1004.9 - 0.6
25/04:30am -0.9 -5.3 -2.3 90 0.5 WNW 11 19 6 10 1004.5 - 0.6
25/04:00am -0.8 -6.4 -2.5 88 0.6 WNW 17 26 9 14 1004.3 - 0.6
25/03:30am -1.1 -6.7 -2.5 90 0.5 WNW 17 24 9 13 1003.9 - 0.6
25/03:00am -1.4 -7.5 -2.7 91 0.4 NNW 20 30 11 16 1003.5 1007.2 0.6
25/02:30am -1.4 -6.2 -2.8 90 0.4 WNW 13 19 7 10 1004.2 - 0.6
25/02:14am -1.4 -5.8 -2.4 93 0.3 WNW 11 19 6 10 1004.2 - 0.6
25/02:00am -1.8 -5.5 -2.6 94 0.2 W 7 13 4 7 1004.2 - 0.6
25/01:30am -1.3 -5.8 -2.9 89 0.5 WNW 11 17 6 9 1004.3 - 0.6
25/01:11am -0.9 -5.7 -2.6 88 0.6 WNW 13 22 7 12 1004.2 - 0.6
25/01:09am -0.9 -5.7 -2.6 88 0.6 WNW 13 22 7 12 1004.3 - 0.6
25/01:00am -0.8 -6.9 -2.4 89 0.6 NW 20 32 11 17 1004.2 - 0.6
25/12:30am -0.5 -6.9 -1.6 92 0.4 NW 22 35 12 19 1004.2 - 0.6
25/12:00am -0.5 -7.3 -1.8 91 0.5 NW 24 35 13 19 1004.2 1007.9 0.6
 
Date/Time
EST
Temp
°C
App
Temp
°C
Dew
Point
°C
Rel
Hum
%
Delta-T
°C
Wind Press
QNH
hPa
Press
MSL
hPa
Rain since
9am
mm
Dir  Spd
km/h
Gust
km/h
Spd
kts
Gust
kts
24/11:48pm -0.1 -6.2 -2.0 87 0.7 NW 20 32 11 17 1004.1 - 0.6
24/11:30pm 0.0 -5.5 -2.1 86 0.8 NNW 17 30 9 16 1004.1 - 0.6
24/11:00pm 0.2 -4.9 -1.9 86 0.8 NNW 15 26 8 14 1004.1 - 0.6
24/10:47pm 0.0 -5.1 -1.9 87 0.7 NNW 15 22 8 12 1003.9 - 0.6
24/10:30pm 0.2 -5.8 -1.7 87 0.7 NW 20 35 11 19 1004.2 - 0.6
24/10:28pm -0.1 -6.0 -2.0 87 0.7 NW 19 35 10 19 1004.3 - 0.6
24/10:02pm 0.0 -5.9 -2.4 84 0.9 NNW 19 35 10 19 1004.6 - 0.6
24/10:00pm 0.1 -5.8 -2.3 84 0.9 NNW 19 35 10 19 1004.6 - 0.6
24/09:43pm -0.1 -5.3 -2.5 84 0.9 NNW 15 26 8 14 1004.9 - 0.6
24/09:30pm 0.0 -6.5 -2.7 82 1.0 N 22 37 12 20 1005.1 - 0.6
24/09:00pm 0.0 -5.1 -1.9 87 0.7 NW 15 22 8 12 1005.5 1009.3 0.4
24/08:58pm -0.2 -4.9 -1.8 89 0.6 NW 13 22 7 12 1005.5 - 0.4
24/08:30pm -1.7 -5.7 -2.4 95 0.2 E 9 13 5 7 1005.6 - 0.4
24/08:11pm -0.8 -4.1 -1.5 95 0.2 NNW 6 11 3 6 1005.6 - 0.4
24/08:10pm -0.8 -4.1 -1.5 95 0.2 NNW 6 9 3 5 1005.6 - 0.4
24/08:00pm -0.7 -4.2 -1.5 94 0.3 N 7 13 4 7 1005.8 - 0.4
24/07:41pm -0.6 -5.3 -1.6 93 0.3 NNW 13 19 7 10 1005.8 - 0.4
24/07:33pm -0.6 -6.0 -1.7 92 0.4 NW 17 20 9 11 1005.8 - 0.4
24/07:10pm -0.3 -4.9 -1.4 92 0.4 WNW 13 22 7 12 1006.0 - 0.4
24/07:00pm -0.5 -4.4 -1.6 92 0.4 NW 9 17 5 9 1006.0 - 0.4
24/06:30pm -0.5 -5.6 -2.1 89 0.6 NNW 15 24 8 13 1005.9 - 0.4
24/06:17pm -0.3 -6.8 -2.2 87 0.7 NW 22 32 12 17 1005.6 - 0.4
24/06:06pm -0.3 -7.9 -2.5 85 0.8 NW 28 44 15 24 1005.8 - 0.4
24/06:00pm -0.2 -7.9 -2.6 84 0.9 NW 28 41 15 22 1005.8 1009.5 0.4
24/05:56pm -0.3 -7.6 -2.7 84 0.9 NW 26 41 14 22 1005.6 - 0.4
24/05:44pm -0.2 -7.1 -2.4 85 0.8 NW 24 44 13 24 1005.6 - 0.4
24/05:30pm -0.1 -6.1 -1.8 88 0.6 NW 20 39 11 21 1005.5 - 0.4
24/05:08pm -0.3 -5.4 -1.9 89 0.6 NW 15 24 8 13 1005.5 - 0.4
24/05:00pm -0.5 -6.0 -1.8 91 0.5 NW 17 26 9 14 1005.6 - 0.4
24/04:30pm -0.2 -4.6 -2.1 87 0.7 NNW 11 17 6 9 1005.5 - 0.4
24/04:29pm -0.2 -4.9 -2.1 87 0.7 NNW 13 17 7 9 1005.5 - 0.4
24/04:21pm -0.2 -5.0 -2.3 86 0.8 NNW 13 19 7 10 1005.5 - 0.4
24/04:20pm -0.2 -6.1 -2.3 86 0.8 NW 19 28 10 15 1005.5 - 0.4
24/04:00pm -0.3 -5.1 -2.2 87 0.7 NNW 13 30 7 16 1005.5 - 0.4
24/03:30pm -0.2 -6.3 -2.1 87 0.7 NNW 20 32 11 17 1005.6 - 0.4
24/03:18pm -0.3 -7.9 -2.5 85 0.8 NNW 28 43 15 23 1005.6 - 0.4
24/03:17pm -0.3 -7.9 -2.5 85 0.8 NNW 28 43 15 23 1005.6 - 0.4
24/03:00pm 0.2 -5.9 -2.7 81 1.1 NNW 20 32 11 17 1006.0 1009.7 0.4
24/02:30pm -0.1 -4.9 -2.3 85 0.8 N 13 20 7 11 1006.3 - 0.4
24/02:17pm -0.2 -5.4 -2.6 84 0.9 NNW 15 30 8 16 1006.4 - 0.4
24/02:16pm -0.2 -5.4 -2.6 84 0.9 NNW 15 30 8 16 1006.4 - 0.4
24/02:00pm -0.5 -7.3 -2.2 88 0.6 NNW 24 37 13 20 1006.7 - 0.4
24/01:30pm -0.5 -5.7 -2.4 87 0.7 NW 15 26 8 14 1007.1 - 0.2
24/01:13pm -0.6 -5.5 -3.0 84 0.8 NNW 13 20 7 11 1007.2 - 0.2
24/01:12pm -0.6 -5.5 -3.0 84 0.8 NNW 13 20 7 11 1007.2 - 0.2
24/01:03pm -0.5 -5.0 -3.3 81 1.0 N 11 20 6 11 1007.5 - 0.2
24/01:02pm -0.5 -5.0 -3.3 81 1.0 N 11 20 6 11 1007.5 - 0.2
24/01:00pm -0.4 -4.9 -3.3 81 1.0 N 11 22 6 12 1007.5 - 0.2
24/12:51pm -0.5 -6.1 -3.2 82 1.0 NW 17 35 9 19 1007.8 - 0.2
24/12:50pm -0.5 -6.1 -3.2 82 1.0 NW 17 35 9 19 1007.8 - 0.2
24/12:30pm -0.4 -5.4 -3.9 77 1.2 NW 13 20 7 11 1008.0 - 0.2
24/12:00pm -0.3 -6.1 -4.4 74 1.4 NW 17 24 9 13 1008.7 1012.4 0.2
24/11:30am -0.3 -6.1 -4.7 72 1.5 NW 17 24 9 13 1009.1 - 0.2
24/11:00am -0.7 -8.2 -4.6 75 1.3 NW 26 35 14 19 1009.5 - 0.2
24/10:50am -0.8 -7.9 -4.7 75 1.3 NW 24 41 13 22 1009.5 - 0.2
24/10:49am -0.8 -7.9 -4.7 75 1.3 NW 24 41 13 22 1009.5 - 0.2
24/10:30am -1.0 -8.9 -4.5 77 1.2 NW 28 44 15 24 1009.5 - 0.2
24/10:20am -1.0 -8.1 -4.5 77 1.2 NW 24 37 13 20 1009.5 - 0.2
24/10:19am -1.0 -8.1 -4.5 77 1.2 NW 24 37 13 20 1009.5 - 0.2
24/10:00am -0.9 -6.7 -4.8 75 1.3 WNW 17 24 9 13 1009.5 - 0.2
24/09:35am -1.0 -6.8 -4.9 75 1.3 WNW 17 32 9 17 1009.4 - 0.2
24/09:34am -1.0 -6.8 -4.9 75 1.3 WNW 17 32 9 17 1009.4 - 0.2
24/09:30am -1.2 -6.2 -4.7 77 1.2 NW 13 28 7 15 1009.4 - 0.2
24/09:00am -1.3 -6.2 -3.8 83 0.8 WNW 13 28 7 15 1009.7 1013.6 0.0
24/08:30am -1.5 -6.4 -3.4 87 0.6 NW 13 22 7 12 1009.4 - 0.0
24/08:00am -1.9 -8.0 -3.5 89 0.5 NW 19 28 10 15 1009.3 - 0.0
24/07:47am -1.9 -8.2 -3.6 88 0.5 NW 20 33 11 18 1009.2 - 0.0
24/07:46am -1.9 -8.2 -3.6 88 0.5 NW 20 33 11 18 1009.2 - 0.0
24/07:30am -1.9 -7.6 -4.1 85 0.7 NW 17 26 9 14 1009.1 - 0.0
24/07:03am -2.5 -7.5 -4.2 88 0.5 NW 13 19 7 10 1008.8 - 0.0
24/07:02am -2.5 -7.5 -4.2 88 0.5 NW 13 19 7 10 1008.8 - 0.0
24/07:00am -2.6 -7.6 -4.3 88 0.5 NW 13 19 7 10 1008.8 - 0.0
24/06:46am -2.7 -7.7 -4.7 86 0.6 WNW 13 20 7 11 1008.8 - 0.0
24/06:45am -2.7 -7.7 -4.7 86 0.6 WNW 13 20 7 11 1008.8 - 0.0
24/06:30am -2.8 -7.1 -5.0 85 0.6 NW 9 13 5 7 1008.7 - 0.0
24/06:00am -2.1 -6.8 -4.6 83 0.8 NW 11 20 6 11 1008.8 1012.7 0.0
24/05:30am -2.0 -6.2 -4.2 85 0.7 NW 9 17 5 9 1008.9 - 0.0
24/05:00am -2.1 -8.2 -4.0 87 0.6 WNW 19 28 10 15 1008.9 - 0.0
24/04:37am -2.6 -7.6 -3.9 91 0.3 NW 13 24 7 13 1009.3 - 0.0
24/04:36am -2.6 -7.6 -3.9 91 0.3 NW 13 24 7 13 1009.3 - 0.0
24/04:30am -2.7 -7.3 -4.0 91 0.3 NW 11 20 6 11 1009.2 - 0.0
24/04:24am -2.8 -7.0 -4.1 91 0.3 NNW 9 17 5 9 1009.3 - 0.0
24/04:23am -2.8 -7.0 -4.1 91 0.3 NNW 9 17 5 9 1009.3 - 0.0
24/04:00am -2.6 -7.6 -4.3 88 0.5 NW 13 22 7 12 1009.4 - 0.0
24/03:30am -2.6 -7.7 -5.1 83 0.7 NW 13 19 7 10 1009.3 - 0.0
24/03:00am -2.6 -7.3 -4.9 84 0.7 NW 11 20 6 11 1009.5 1013.3 0.0
24/02:30am -2.9 -7.6 -5.2 84 0.6 WNW 11 15 6 8 1009.5 - 0.0
24/02:00am -2.7 -7.0 -5.2 83 0.7 W 9 15 5 8 1009.6 - 0.0
24/01:30am -2.2 -7.6 -4.7 83 0.8 W 15 28 8 15 1009.6 - 0.0
24/01:00am -2.2 -7.6 -4.5 84 0.7 WNW 15 26 8 14 1009.6 - 0.0
24/12:30am -2.3 -7.3 -4.3 86 0.6 NW 13 19 7 10 1009.7 - 0.0
24/12:00am -1.5 -7.2 -4.0 83 0.8 WNW 17 28 9 15 1009.7 1013.5 0.0
 
Date/Time
EST
Temp
°C
App
Temp
°C
Dew
Point
°C
Rel
Hum
%
Delta-T
°C
Wind Press
QNH
hPa
Press
MSL
hPa
Rain since
9am
mm
Dir  Spd
km/h
Gust
km/h
Spd
kts
Gust
kts
23/11:30pm -1.4 -6.7 -3.6 85 0.7 WNW 15 19 8 10 1009.8 - 0.0
23/11:00pm -2.0 -6.6 -4.0 86 0.6 W 11 15 6 8 1009.7 - 0.0
23/10:30pm -2.3 -6.5 -4.0 88 0.5 WNW 9 17 5 9 1009.7 - 0.0
23/10:00pm -1.4 -5.9 -3.4 86 0.6 NW 11 19 6 10 1009.3 - 0.0
23/09:38pm -1.7 -6.6 -3.4 88 0.5 NW 13 24 7 13 1009.1 - 0.0
23/09:37pm -1.7 -6.6 -3.4 88 0.5 NW 13 24 7 13 1009.1 - 0.0
23/09:30pm -1.6 -6.9 -3.3 88 0.5 WNW 15 24 8 13 1008.9 - 0.0
23/09:17pm -1.3 -6.6 -3.5 85 0.7 W 15 22 8 12 1008.9 - 0.0
23/09:16pm -1.3 -6.6 -3.5 85 0.7 W 15 22 8 12 1008.9 - 0.0
23/09:00pm -1.2 -6.5 -3.9 82 0.9 W 15 30 8 16 1008.8 1012.6 0.0
23/08:30pm -1.0 -7.1 -3.7 82 0.9 W 19 32 10 17 1008.4 - 0.0
23/08:00pm -1.1 -7.2 -3.9 81 0.9 W 19 33 10 18 1008.1 - 0.0
23/07:30pm -1.2 -7.2 -3.4 85 0.7 WNW 19 30 10 16 1007.8 - 0.0
23/07:00pm -0.9 -7.0 -4.1 79 1.1 WNW 19 28 10 15 1007.5 - 0.0
23/06:30pm -1.1 -8.2 -4.3 79 1.1 W 24 35 13 19 1006.8 - 0.0
23/06:00pm -1.0 -7.1 -4.3 78 1.1 WNW 19 33 10 18 1006.3 1010.1 0.0
23/05:30pm -1.0 -7.2 -4.5 77 1.2 WNW 19 33 10 18 1005.9 - 0.0
23/05:00pm -1.0 -7.8 -5.2 73 1.4 W 22 33 12 18 1005.4 - 0.0
23/04:30pm -0.9 -7.7 -5.1 73 1.4 W 22 35 12 19 1005.1 - 0.0
23/04:00pm -0.7 -7.5 -4.7 74 1.4 W 22 37 12 20 1004.7 - 0.0
23/03:30pm -0.6 -6.8 -4.6 74 1.4 W 19 33 10 18 1004.4 - 0.0
23/03:00pm -0.6 -8.1 -4.8 73 1.4 W 26 50 14 27 1003.8 1007.5 0.0
23/02:56pm -0.6 -8.5 -5.0 72 1.5 W 28 50 15 27 1003.6 - 0.0
23/02:55pm -0.6 -8.5 -5.0 72 1.5 W 28 50 15 27 1003.6 - 0.0
23/02:30pm -0.1 -7.3 -4.9 70 1.7 W 24 43 13 23 1003.2 - 0.0
23/02:00pm -0.1 -6.5 -4.9 70 1.7 W 20 35 11 19 1002.9 - 0.0
23/01:30pm -0.2 -7.3 -4.8 71 1.6 W 24 37 13 20 1002.8 - 0.0
23/01:00pm -0.4 -8.4 -5.4 69 1.7 W 28 50 15 27 1002.2 - 0.0

Other Formats:

Comma delimited format used in spreadsheet applications
http://www.bom.gov.au/fwo/IDV60801/IDV60801.94905.axf

JavaScript Object Notation format (JSON) in row-major order
http://www.bom.gov.au/fwo/IDV60801/IDV60801.94905.json